sensor_id;sensor_type;location;lat;lon;timestamp;P1;durP1;ratioP1;P2;durP2;ratioP2
37657;SDS011;23500;53.268;8.308;2023-06-22T00:02:08;4.90;;;4.50;;
37657;SDS011;23500;53.268;8.308;2023-06-22T00:04:34;5.32;;;4.93;;
37657;SDS011;23500;53.268;8.308;2023-06-22T00:06:59;4.80;;;4.40;;
37657;SDS011;23500;53.268;8.308;2023-06-22T00:09:25;5.00;;;4.60;;
37657;SDS011;23500;53.268;8.308;2023-06-22T00:11:50;4.85;;;4.45;;
37657;SDS011;23500;53.268;8.308;2023-06-22T00:14:16;4.93;;;4.53;;
37657;SDS011;23500;53.268;8.308;2023-06-22T00:16:42;4.90;;;4.53;;
37657;SDS011;23500;53.268;8.308;2023-06-22T00:19:07;4.70;;;4.30;;
37657;SDS011;23500;53.268;8.308;2023-06-22T00:21:36;5.13;;;4.72;;
37657;SDS011;23500;53.268;8.308;2023-06-22T00:24:03;4.60;;;4.30;;
37657;SDS011;23500;53.268;8.308;2023-06-22T00:26:29;4.57;;;4.18;;
37657;SDS011;23500;53.268;8.308;2023-06-22T00:28:55;4.88;;;4.57;;
37657;SDS011;23500;53.268;8.308;2023-06-22T00:31:20;4.65;;;4.30;;
37657;SDS011;23500;53.268;8.308;2023-06-22T00:33:46;4.28;;;3.97;;
37657;SDS011;23500;53.268;8.308;2023-06-22T00:36:11;4.85;;;4.45;;
37657;SDS011;23500;53.268;8.308;2023-06-22T00:38:41;4.35;;;4.05;;
37657;SDS011;23500;53.268;8.308;2023-06-22T00:41:07;5.00;;;4.60;;
37657;SDS011;23500;53.268;8.308;2023-06-22T00:43:32;4.55;;;4.25;;
37657;SDS011;23500;53.268;8.308;2023-06-22T00:45:58;4.57;;;4.28;;
37657;SDS011;23500;53.268;8.308;2023-06-22T00:48:24;5.03;;;4.63;;
37657;SDS011;23500;53.268;8.308;2023-06-22T00:50:50;4.57;;;4.20;;
37657;SDS011;23500;53.268;8.308;2023-06-22T00:53:18;4.65;;;4.25;;
37657;SDS011;23500;53.268;8.308;2023-06-22T00:55:44;4.30;;;4.00;;
37657;SDS011;23500;53.268;8.308;2023-06-22T00:58:11;5.03;;;4.63;;
37657;SDS011;23500;53.268;8.308;2023-06-22T01:00:38;4.30;;;4.00;;
37657;SDS011;23500;53.268;8.308;2023-06-22T01:03:05;4.70;;;4.30;;
37657;SDS011;23500;53.268;8.308;2023-06-22T01:05:34;4.80;;;4.47;;
37657;SDS011;23500;53.268;8.308;2023-06-22T01:08:04;4.20;;;3.90;;
37657;SDS011;23500;53.268;8.308;2023-06-22T01:11:10;4.35;;;4.05;;
37657;SDS011;23500;53.268;8.308;2023-06-22T01:13:57;4.70;;;4.32;;
37657;SDS011;23500;53.268;8.308;2023-06-22T01:16:33;4.65;;;4.35;;
37657;SDS011;23500;53.268;8.308;2023-06-22T01:19:04;4.68;;;4.38;;
37657;SDS011;23500;53.268;8.308;2023-06-22T01:21:42;4.80;;;4.40;;
37657;SDS011;23500;53.268;8.308;2023-06-22T01:24:22;4.50;;;4.20;;
37657;SDS011;23500;53.268;8.308;2023-06-22T01:29:52;4.78;;;4.38;;
37657;SDS011;23500;53.268;8.308;2023-06-22T01:32:27;4.20;;;3.90;;
37657;SDS011;23500;53.268;8.308;2023-06-22T01:34:58;5.15;;;4.70;;
37657;SDS011;23500;53.268;8.308;2023-06-22T01:37:26;4.47;;;4.15;;
37657;SDS011;23500;53.268;8.308;2023-06-22T01:39:53;4.15;;;3.85;;
37657;SDS011;23500;53.268;8.308;2023-06-22T01:42:21;4.35;;;4.05;;
37657;SDS011;23500;53.268;8.308;2023-06-22T01:44:48;4.60;;;4.20;;
37657;SDS011;23500;53.268;8.308;2023-06-22T01:47:14;4.80;;;4.40;;
37657;SDS011;23500;53.268;8.308;2023-06-22T01:49:41;4.40;;;4.10;;
37657;SDS011;23500;53.268;8.308;2023-06-22T01:52:07;4.85;;;4.45;;
37657;SDS011;23500;53.268;8.308;2023-06-22T01:54:33;4.35;;;4.05;;
37657;SDS011;23500;53.268;8.308;2023-06-22T01:56:59;4.50;;;4.10;;
37657;SDS011;23500;53.268;8.308;2023-06-22T01:59:39;4.30;;;4.00;;
37657;SDS011;23500;53.268;8.308;2023-06-22T02:02:16;4.53;;;4.20;;
37657;SDS011;23500;53.268;8.308;2023-06-22T02:07:20;4.50;;;4.10;;
37657;SDS011;23500;53.268;8.308;2023-06-22T02:09:51;4.35;;;4.05;;
37657;SDS011;23500;53.268;8.308;2023-06-22T02:12:18;4.78;;;4.38;;
37657;SDS011;23500;53.268;8.308;2023-06-22T02:14:48;4.03;;;3.72;;
37657;SDS011;23500;53.268;8.308;2023-06-22T02:17:14;4.30;;;4.00;;
37657;SDS011;23500;53.268;8.308;2023-06-22T02:19:41;4.15;;;3.85;;
37657;SDS011;23500;53.268;8.308;2023-06-22T02:22:07;4.32;;;4.03;;
37657;SDS011;23500;53.268;8.308;2023-06-22T02:24:33;4.80;;;4.40;;
37657;SDS011;23500;53.268;8.308;2023-06-22T02:26:59;4.68;;;4.38;;
37657;SDS011;23500;53.268;8.308;2023-06-22T02:29:26;5.10;;;4.70;;
37657;SDS011;23500;53.268;8.308;2023-06-22T02:31:53;4.85;;;4.45;;
37657;SDS011;23500;53.268;8.308;2023-06-22T02:34:19;4.38;;;3.97;;
37657;SDS011;23500;53.268;8.308;2023-06-22T02:36:48;4.25;;;3.95;;
37657;SDS011;23500;53.268;8.308;2023-06-22T02:39:20;4.55;;;4.25;;
37657;SDS011;23500;53.268;8.308;2023-06-22T02:41:48;4.53;;;4.18;;
37657;SDS011;23500;53.268;8.308;2023-06-22T02:44:17;4.50;;;4.10;;
37657;SDS011;23500;53.268;8.308;2023-06-22T02:46:43;4.28;;;3.97;;
37657;SDS011;23500;53.268;8.308;2023-06-22T02:49:10;4.43;;;4.05;;
37657;SDS011;23500;53.268;8.308;2023-06-22T02:51:37;4.63;;;4.28;;
37657;SDS011;23500;53.268;8.308;2023-06-22T02:54:04;4.70;;;4.32;;
37657;SDS011;23500;53.268;8.308;2023-06-22T02:56:30;4.40;;;4.10;;
37657;SDS011;23500;53.268;8.308;2023-06-22T02:58:56;4.30;;;4.00;;
37657;SDS011;23500;53.268;8.308;2023-06-22T03:01:26;4.25;;;3.95;;
37657;SDS011;23500;53.268;8.308;2023-06-22T03:03:52;4.07;;;3.78;;
37657;SDS011;23500;53.268;8.308;2023-06-22T03:06:18;3.95;;;3.65;;
37657;SDS011;23500;53.268;8.308;2023-06-22T03:08:48;4.40;;;4.10;;
37657;SDS011;23500;53.268;8.308;2023-06-22T03:11:14;4.60;;;4.20;;
37657;SDS011;23500;53.268;8.308;2023-06-22T03:13:40;4.13;;;3.83;;
37657;SDS011;23500;53.268;8.308;2023-06-22T03:16:06;4.25;;;3.95;;
37657;SDS011;23500;53.268;8.308;2023-06-22T03:18:31;4.38;;;4.07;;
37657;SDS011;23500;53.268;8.308;2023-06-22T03:20:57;4.22;;;3.92;;
37657;SDS011;23500;53.268;8.308;2023-06-22T03:23:23;4.10;;;3.80;;
37657;SDS011;23500;53.268;8.308;2023-06-22T03:25:49;4.18;;;3.88;;
37657;SDS011;23500;53.268;8.308;2023-06-22T03:28:14;4.50;;;4.10;;
37657;SDS011;23500;53.268;8.308;2023-06-22T03:30:40;3.88;;;3.58;;
37657;SDS011;23500;53.268;8.308;2023-06-22T03:33:06;4.53;;;4.13;;
37657;SDS011;23500;53.268;8.308;2023-06-22T03:35:32;4.32;;;4.03;;
37657;SDS011;23500;53.268;8.308;2023-06-22T03:37:57;4.22;;;3.92;;
37657;SDS011;23500;53.268;8.308;2023-06-22T03:40:23;4.32;;;4.03;;
37657;SDS011;23500;53.268;8.308;2023-06-22T03:42:48;4.20;;;3.90;;
37657;SDS011;23500;53.268;8.308;2023-06-22T03:45:14;4.13;;;3.80;;
37657;SDS011;23500;53.268;8.308;2023-06-22T03:47:40;4.30;;;4.00;;
37657;SDS011;23500;53.268;8.308;2023-06-22T03:50:06;4.30;;;4.00;;
37657;SDS011;23500;53.268;8.308;2023-06-22T03:52:32;4.30;;;4.00;;
37657;SDS011;23500;53.268;8.308;2023-06-22T03:54:57;4.00;;;3.70;;
37657;SDS011;23500;53.268;8.308;2023-06-22T03:57:23;4.38;;;4.05;;
37657;SDS011;23500;53.268;8.308;2023-06-22T03:59:49;4.10;;;3.80;;
37657;SDS011;23500;53.268;8.308;2023-06-22T04:02:15;4.10;;;3.80;;
37657;SDS011;23500;53.268;8.308;2023-06-22T04:04:40;4.20;;;3.90;;
37657;SDS011;23500;53.268;8.308;2023-06-22T04:07:06;4.50;;;4.20;;
37657;SDS011;23500;53.268;8.308;2023-06-22T04:09:32;4.13;;;3.83;;
37657;SDS011;23500;53.268;8.308;2023-06-22T04:11:58;4.30;;;4.00;;
37657;SDS011;23500;53.268;8.308;2023-06-22T04:14:24;4.63;;;4.25;;
37657;SDS011;23500;53.268;8.308;2023-06-22T04:16:49;4.40;;;4.05;;
37657;SDS011;23500;53.268;8.308;2023-06-22T04:19:15;4.95;;;4.63;;
37657;SDS011;23500;53.268;8.308;2023-06-22T04:21:43;4.65;;;4.25;;
37657;SDS011;23500;53.268;8.308;2023-06-22T04:24:09;5.00;;;4.60;;
37657;SDS011;23500;53.268;8.308;2023-06-22T04:26:38;5.20;;;4.70;;
37657;SDS011;23500;53.268;8.308;2023-06-22T04:29:06;5.93;;;5.43;;
37657;SDS011;23500;53.268;8.308;2023-06-22T04:31:33;5.32;;;4.93;;
37657;SDS011;23500;53.268;8.308;2023-06-22T04:34:01;5.70;;;5.20;;
37657;SDS011;23500;53.268;8.308;2023-06-22T04:36:38;5.60;;;5.20;;
37657;SDS011;23500;53.268;8.308;2023-06-22T04:39:09;6.75;;;6.20;;
37657;SDS011;23500;53.268;8.308;2023-06-22T04:41:36;6.85;;;6.30;;
37657;SDS011;23500;53.268;8.308;2023-06-22T04:46:35;7.22;;;6.63;;
37657;SDS011;23500;53.268;8.308;2023-06-22T04:49:09;7.57;;;6.97;;
37657;SDS011;23500;53.268;8.308;2023-06-22T04:51:40;8.02;;;7.32;;
37657;SDS011;23500;53.268;8.308;2023-06-22T04:54:07;7.72;;;7.10;;
37657;SDS011;23500;53.268;8.308;2023-06-22T04:56:33;8.45;;;7.65;;
37657;SDS011;23500;53.268;8.308;2023-06-22T04:58:59;8.57;;;7.88;;
37657;SDS011;23500;53.268;8.308;2023-06-22T05:01:26;8.77;;;7.97;;
37657;SDS011;23500;53.268;8.308;2023-06-22T05:03:52;10.50;;;9.60;;
37657;SDS011;23500;53.268;8.308;2023-06-22T05:06:23;8.85;;;8.07;;
37657;SDS011;23500;53.268;8.308;2023-06-22T05:08:53;9.57;;;8.77;;
37657;SDS011;23500;53.268;8.308;2023-06-22T05:11:26;9.75;;;8.85;;
37657;SDS011;23500;53.268;8.308;2023-06-22T05:13:52;10.43;;;9.35;;
37657;SDS011;23500;53.268;8.308;2023-06-22T05:16:18;11.13;;;10.07;;
37657;SDS011;23500;53.268;8.308;2023-06-22T05:18:55;12.15;;;11.02;;
37657;SDS011;23500;53.268;8.308;2023-06-22T05:21:25;13.95;;;12.70;;
37657;SDS011;23500;53.268;8.308;2023-06-22T05:23:52;15.40;;;14.00;;
37657;SDS011;23500;53.268;8.308;2023-06-22T05:26:21;15.45;;;13.93;;
37657;SDS011;23500;53.268;8.308;2023-06-22T05:28:47;19.95;;;17.98;;
37657;SDS011;23500;53.268;8.308;2023-06-22T05:31:13;31.63;;;28.35;;
37657;SDS011;23500;53.268;8.308;2023-06-22T05:33:40;31.48;;;28.42;;
37657;SDS011;23500;53.268;8.308;2023-06-22T05:36:06;31.83;;;28.65;;
37657;SDS011;23500;53.268;8.308;2023-06-22T05:38:32;55.05;;;37.80;;
37657;SDS011;23500;53.268;8.308;2023-06-22T05:40:58;64.18;;;40.50;;
37657;SDS011;23500;53.268;8.308;2023-06-22T05:43:23;56.95;;;36.78;;
37657;SDS011;23500;53.268;8.308;2023-06-22T05:45:49;41.05;;;31.52;;
37657;SDS011;23500;53.268;8.308;2023-06-22T05:48:15;34.97;;;30.63;;
37657;SDS011;23500;53.268;8.308;2023-06-22T05:50:41;30.83;;;27.48;;
37657;SDS011;23500;53.268;8.308;2023-06-22T05:53:07;29.17;;;25.85;;
37657;SDS011;23500;53.268;8.308;2023-06-22T05:55:33;30.52;;;25.52;;
37657;SDS011;23500;53.268;8.308;2023-06-22T05:57:58;28.33;;;25.05;;
37657;SDS011;23500;53.268;8.308;2023-06-22T06:00:24;30.80;;;25.38;;
37657;SDS011;23500;53.268;8.308;2023-06-22T06:02:50;32.78;;;24.17;;
37657;SDS011;23500;53.268;8.308;2023-06-22T06:05:16;34.80;;;25.85;;
37657;SDS011;23500;53.268;8.308;2023-06-22T06:07:42;36.35;;;24.90;;
37657;SDS011;23500;53.268;8.308;2023-06-22T06:10:08;31.88;;;25.77;;
37657;SDS011;23500;53.268;8.308;2023-06-22T06:12:34;33.78;;;24.90;;
37657;SDS011;23500;53.268;8.308;2023-06-22T06:15:00;33.72;;;25.58;;
37657;SDS011;23500;53.268;8.308;2023-06-22T06:17:26;29.88;;;25.05;;
37657;SDS011;23500;53.268;8.308;2023-06-22T06:19:52;31.52;;;25.70;;
37657;SDS011;23500;53.268;8.308;2023-06-22T06:22:18;31.98;;;25.98;;
37657;SDS011;23500;53.268;8.308;2023-06-22T06:24:45;31.35;;;25.60;;
37657;SDS011;23500;53.268;8.308;2023-06-22T06:27:12;32.22;;;24.55;;
37657;SDS011;23500;53.268;8.308;2023-06-22T06:29:38;29.15;;;25.55;;
37657;SDS011;23500;53.268;8.308;2023-06-22T06:32:04;30.77;;;24.92;;
37657;SDS011;23500;53.268;8.308;2023-06-22T06:34:29;29.15;;;25.20;;
37657;SDS011;23500;53.268;8.308;2023-06-22T06:36:55;29.58;;;25.58;;
37657;SDS011;23500;53.268;8.308;2023-06-22T06:39:21;31.20;;;24.88;;
37657;SDS011;23500;53.268;8.308;2023-06-22T06:41:46;29.95;;;24.75;;
37657;SDS011;23500;53.268;8.308;2023-06-22T06:44:12;31.35;;;25.20;;
37657;SDS011;23500;53.268;8.308;2023-06-22T06:46:38;30.55;;;25.10;;
37657;SDS011;23500;53.268;8.308;2023-06-22T06:49:03;29.98;;;25.73;;
37657;SDS011;23500;53.268;8.308;2023-06-22T06:51:29;30.85;;;23.30;;
37657;SDS011;23500;53.268;8.308;2023-06-22T06:53:55;29.88;;;23.88;;
37657;SDS011;23500;53.268;8.308;2023-06-22T06:56:20;28.90;;;23.52;;
37657;SDS011;23500;53.268;8.308;2023-06-22T06:58:46;28.30;;;23.42;;
37657;SDS011;23500;53.268;8.308;2023-06-22T07:01:12;25.85;;;23.10;;
37657;SDS011;23500;53.268;8.308;2023-06-22T07:03:38;26.02;;;23.17;;
37657;SDS011;23500;53.268;8.308;2023-06-22T07:06:03;25.95;;;22.67;;
37657;SDS011;23500;53.268;8.308;2023-06-22T07:08:29;25.17;;;22.13;;
37657;SDS011;23500;53.268;8.308;2023-06-22T07:10:55;27.50;;;22.65;;
37657;SDS011;23500;53.268;8.308;2023-06-22T07:13:21;25.10;;;22.50;;
37657;SDS011;23500;53.268;8.308;2023-06-22T07:15:46;25.80;;;21.67;;
37657;SDS011;23500;53.268;8.308;2023-06-22T07:18:12;27.42;;;22.77;;
37657;SDS011;23500;53.268;8.308;2023-06-22T07:20:37;24.67;;;22.10;;
37657;SDS011;23500;53.268;8.308;2023-06-22T07:23:04;26.40;;;21.77;;
37657;SDS011;23500;53.268;8.308;2023-06-22T07:25:30;24.40;;;21.27;;
37657;SDS011;23500;53.268;8.308;2023-06-22T07:30:29;24.02;;;20.38;;
37657;SDS011;23500;53.268;8.308;2023-06-22T07:32:57;25.90;;;21.67;;
37657;SDS011;23500;53.268;8.308;2023-06-22T07:35:23;24.48;;;20.65;;
37657;SDS011;23500;53.268;8.308;2023-06-22T07:37:50;23.10;;;20.65;;
37657;SDS011;23500;53.268;8.308;2023-06-22T07:40:15;25.23;;;21.15;;
37657;SDS011;23500;53.268;8.308;2023-06-22T07:42:41;23.55;;;20.63;;
37657;SDS011;23500;53.268;8.308;2023-06-22T07:45:07;23.25;;;20.75;;
37657;SDS011;23500;53.268;8.308;2023-06-22T07:47:33;21.92;;;19.63;;
37657;SDS011;23500;53.268;8.308;2023-06-22T07:50:00;21.70;;;18.95;;
37657;SDS011;23500;53.268;8.308;2023-06-22T07:52:27;23.98;;;19.90;;
37657;SDS011;23500;53.268;8.308;2023-06-22T07:54:54;22.88;;;20.45;;
37657;SDS011;23500;53.268;8.308;2023-06-22T07:57:20;23.02;;;19.60;;
37657;SDS011;23500;53.268;8.308;2023-06-22T07:59:46;21.88;;;19.45;;
37657;SDS011;23500;53.268;8.308;2023-06-22T08:02:12;21.45;;;19.00;;
37657;SDS011;23500;53.268;8.308;2023-06-22T08:04:38;21.85;;;19.55;;
37657;SDS011;23500;53.268;8.308;2023-06-22T08:07:04;21.92;;;19.23;;
37657;SDS011;23500;53.268;8.308;2023-06-22T08:09:30;20.88;;;18.67;;
37657;SDS011;23500;53.268;8.308;2023-06-22T08:11:57;20.33;;;17.73;;
37657;SDS011;23500;53.268;8.308;2023-06-22T08:14:24;21.23;;;18.77;;
37657;SDS011;23500;53.268;8.308;2023-06-22T08:16:51;21.83;;;18.05;;
37657;SDS011;23500;53.268;8.308;2023-06-22T08:19:17;20.85;;;18.60;;
37657;SDS011;23500;53.268;8.308;2023-06-22T08:21:42;20.63;;;18.45;;
37657;SDS011;23500;53.268;8.308;2023-06-22T08:24:08;20.42;;;18.25;;
37657;SDS011;23500;53.268;8.308;2023-06-22T08:26:34;19.58;;;17.23;;
37657;SDS011;23500;53.268;8.308;2023-06-22T08:29:02;20.45;;;16.85;;
37657;SDS011;23500;53.268;8.308;2023-06-22T08:31:29;19.67;;;17.38;;
37657;SDS011;23500;53.268;8.308;2023-06-22T08:33:55;18.80;;;16.83;;
37657;SDS011;23500;53.268;8.308;2023-06-22T08:36:21;18.88;;;16.80;;
37657;SDS011;23500;53.268;8.308;2023-06-22T08:38:46;21.10;;;17.30;;
37657;SDS011;23500;53.268;8.308;2023-06-22T08:41:16;19.83;;;17.55;;
37657;SDS011;23500;53.268;8.308;2023-06-22T08:43:42;18.77;;;16.77;;
37657;SDS011;23500;53.268;8.308;2023-06-22T08:46:09;19.02;;;17.02;;
37657;SDS011;23500;53.268;8.308;2023-06-22T08:48:35;17.00;;;15.23;;
37657;SDS011;23500;53.268;8.308;2023-06-22T08:51:01;18.10;;;16.20;;
37657;SDS011;23500;53.268;8.308;2023-06-22T08:53:27;17.25;;;15.52;;
37657;SDS011;23500;53.268;8.308;2023-06-22T08:55:53;18.20;;;16.40;;
37657;SDS011;23500;53.268;8.308;2023-06-22T08:58:18;18.55;;;16.13;;
37657;SDS011;23500;53.268;8.308;2023-06-22T09:00:46;16.88;;;15.05;;
37657;SDS011;23500;53.268;8.308;2023-06-22T09:03:12;17.55;;;15.75;;
37657;SDS011;23500;53.268;8.308;2023-06-22T09:05:38;17.58;;;15.75;;
37657;SDS011;23500;53.268;8.308;2023-06-22T09:08:04;18.73;;;15.38;;
37657;SDS011;23500;53.268;8.308;2023-06-22T09:10:30;17.20;;;15.50;;
37657;SDS011;23500;53.268;8.308;2023-06-22T09:12:56;16.75;;;15.05;;
37657;SDS011;23500;53.268;8.308;2023-06-22T09:15:22;17.38;;;15.68;;
37657;SDS011;23500;53.268;8.308;2023-06-22T09:17:48;17.60;;;15.13;;
37657;SDS011;23500;53.268;8.308;2023-06-22T09:20:14;16.35;;;14.55;;
37657;SDS011;23500;53.268;8.308;2023-06-22T09:22:40;15.85;;;14.30;;
37657;SDS011;23500;53.268;8.308;2023-06-22T09:25:06;15.55;;;13.88;;
37657;SDS011;23500;53.268;8.308;2023-06-22T09:27:32;15.23;;;13.63;;
37657;SDS011;23500;53.268;8.308;2023-06-22T09:29:58;16.58;;;14.25;;
37657;SDS011;23500;53.268;8.308;2023-06-22T09:32:24;15.73;;;14.13;;
37657;SDS011;23500;53.268;8.308;2023-06-22T09:34:50;15.48;;;13.88;;
37657;SDS011;23500;53.268;8.308;2023-06-22T09:37:16;15.35;;;13.75;;
37657;SDS011;23500;53.268;8.308;2023-06-22T09:39:42;14.82;;;13.13;;
37657;SDS011;23500;53.268;8.308;2023-06-22T09:42:08;15.43;;;13.57;;
37657;SDS011;23500;53.268;8.308;2023-06-22T09:44:33;14.65;;;13.25;;
37657;SDS011;23500;53.268;8.308;2023-06-22T09:46:59;15.45;;;13.82;;
37657;SDS011;23500;53.268;8.308;2023-06-22T09:49:25;14.75;;;13.27;;
37657;SDS011;23500;53.268;8.308;2023-06-22T09:51:51;15.93;;;13.55;;
37657;SDS011;23500;53.268;8.308;2023-06-22T09:54:17;14.55;;;13.10;;
37657;SDS011;23500;53.268;8.308;2023-06-22T09:56:43;14.32;;;12.82;;
37657;SDS011;23500;53.268;8.308;2023-06-22T09:59:09;13.80;;;12.40;;
37657;SDS011;23500;53.268;8.308;2023-06-22T10:01:35;14.13;;;12.57;;
37657;SDS011;23500;53.268;8.308;2023-06-22T10:04:01;14.20;;;12.80;;
37657;SDS011;23500;53.268;8.308;2023-06-22T10:06:27;15.40;;;12.98;;
37657;SDS011;23500;53.268;8.308;2023-06-22T10:08:53;13.48;;;12.18;;
37657;SDS011;23500;53.268;8.308;2023-06-22T10:11:19;14.07;;;12.70;;
37657;SDS011;23500;53.268;8.308;2023-06-22T10:13:44;12.73;;;11.43;;
37657;SDS011;23500;53.268;8.308;2023-06-22T10:16:10;12.68;;;11.48;;
37657;SDS011;23500;53.268;8.308;2023-06-22T10:18:36;14.05;;;12.38;;
37657;SDS011;23500;53.268;8.308;2023-06-22T10:21:01;14.45;;;12.52;;
37657;SDS011;23500;53.268;8.308;2023-06-22T10:23:27;13.05;;;11.38;;
37657;SDS011;23500;53.268;8.308;2023-06-22T10:25:53;12.30;;;11.10;;
37657;SDS011;23500;53.268;8.308;2023-06-22T10:28:18;13.57;;;12.18;;
37657;SDS011;23500;53.268;8.308;2023-06-22T10:30:44;13.02;;;11.73;;
37657;SDS011;23500;53.268;8.308;2023-06-22T10:33:10;12.93;;;11.52;;
37657;SDS011;23500;53.268;8.308;2023-06-22T10:35:37;12.00;;;10.70;;
37657;SDS011;23500;53.268;8.308;2023-06-22T10:38:03;12.57;;;11.38;;
37657;SDS011;23500;53.268;8.308;2023-06-22T10:40:29;12.57;;;11.27;;
37657;SDS011;23500;53.268;8.308;2023-06-22T10:42:55;12.40;;;11.20;;
37657;SDS011;23500;53.268;8.308;2023-06-22T10:45:21;11.98;;;10.50;;
37657;SDS011;23500;53.268;8.308;2023-06-22T10:47:47;12.43;;;11.23;;
37657;SDS011;23500;53.268;8.308;2023-06-22T10:50:13;11.20;;;10.02;;
37657;SDS011;23500;53.268;8.308;2023-06-22T10:52:39;12.63;;;10.60;;
37657;SDS011;23500;53.268;8.308;2023-06-22T10:55:06;12.05;;;10.82;;
37657;SDS011;23500;53.268;8.308;2023-06-22T10:57:33;12.27;;;10.98;;
37657;SDS011;23500;53.268;8.308;2023-06-22T10:59:59;12.02;;;10.82;;
37657;SDS011;23500;53.268;8.308;2023-06-22T11:02:24;11.55;;;10.45;;
37657;SDS011;23500;53.268;8.308;2023-06-22T11:04:50;11.05;;;10.02;;
37657;SDS011;23500;53.268;8.308;2023-06-22T11:07:15;11.77;;;10.50;;
37657;SDS011;23500;53.268;8.308;2023-06-22T11:09:43;11.32;;;10.15;;
37657;SDS011;23500;53.268;8.308;2023-06-22T11:12:08;11.88;;;10.57;;
37657;SDS011;23500;53.268;8.308;2023-06-22T11:14:34;12.70;;;10.30;;
37657;SDS011;23500;53.268;8.308;2023-06-22T11:17:00;10.52;;;9.43;;
37657;SDS011;23500;53.268;8.308;2023-06-22T11:19:25;11.10;;;10.00;;
37657;SDS011;23500;53.268;8.308;2023-06-22T11:21:51;11.48;;;10.40;;
37657;SDS011;23500;53.268;8.308;2023-06-22T11:24:17;10.70;;;9.48;;
37657;SDS011;23500;53.268;8.308;2023-06-22T11:26:43;11.13;;;10.07;;
37657;SDS011;23500;53.268;8.308;2023-06-22T11:29:09;11.45;;;10.25;;
37657;SDS011;23500;53.268;8.308;2023-06-22T11:31:35;10.50;;;9.50;;
37657;SDS011;23500;53.268;8.308;2023-06-22T11:34:01;10.82;;;9.65;;
37657;SDS011;23500;53.268;8.308;2023-06-22T11:36:27;11.95;;;10.13;;
37657;SDS011;23500;53.268;8.308;2023-06-22T11:38:54;10.30;;;9.23;;
37657;SDS011;23500;53.268;8.308;2023-06-22T11:41:19;9.98;;;9.00;;
37657;SDS011;23500;53.268;8.308;2023-06-22T11:43:45;10.73;;;9.60;;
37657;SDS011;23500;53.268;8.308;2023-06-22T11:46:11;9.82;;;8.82;;
37657;SDS011;23500;53.268;8.308;2023-06-22T11:48:37;10.02;;;8.88;;
37657;SDS011;23500;53.268;8.308;2023-06-22T11:51:02;10.05;;;8.95;;
37657;SDS011;23500;53.268;8.308;2023-06-22T11:53:28;10.27;;;9.07;;
37657;SDS011;23500;53.268;8.308;2023-06-22T11:55:55;10.02;;;9.02;;
37657;SDS011;23500;53.268;8.308;2023-06-22T11:58:21;10.07;;;8.63;;
37657;SDS011;23500;53.268;8.308;2023-06-22T12:00:47;9.93;;;8.88;;
37657;SDS011;23500;53.268;8.308;2023-06-22T12:03:13;11.07;;;8.73;;
37657;SDS011;23500;53.268;8.308;2023-06-22T12:05:39;9.75;;;8.75;;
37657;SDS011;23500;53.268;8.308;2023-06-22T12:08:06;9.77;;;8.77;;
37657;SDS011;23500;53.268;8.308;2023-06-22T12:10:31;9.38;;;8.48;;
37657;SDS011;23500;53.268;8.308;2023-06-22T12:12:57;10.07;;;9.07;;
37657;SDS011;23500;53.268;8.308;2023-06-22T12:15:24;9.23;;;8.32;;
37657;SDS011;23500;53.268;8.308;2023-06-22T12:17:51;9.32;;;8.43;;
37657;SDS011;23500;53.268;8.308;2023-06-22T12:20:17;9.35;;;8.45;;
37657;SDS011;23500;53.268;8.308;2023-06-22T12:22:42;9.43;;;8.52;;
37657;SDS011;23500;53.268;8.308;2023-06-22T12:25:08;9.38;;;8.48;;
37657;SDS011;23500;53.268;8.308;2023-06-22T12:27:37;9.40;;;8.43;;
37657;SDS011;23500;53.268;8.308;2023-06-22T12:30:03;8.82;;;7.97;;
37657;SDS011;23500;53.268;8.308;2023-06-22T12:32:29;9.07;;;8.13;;
37657;SDS011;23500;53.268;8.308;2023-06-22T12:34:55;8.82;;;7.95;;
37657;SDS011;23500;53.268;8.308;2023-06-22T12:37:21;8.73;;;7.93;;
37657;SDS011;23500;53.268;8.308;2023-06-22T12:39:47;9.18;;;8.27;;
37657;SDS011;23500;53.268;8.308;2023-06-22T12:42:13;9.00;;;8.10;;
37657;SDS011;23500;53.268;8.308;2023-06-22T12:44:39;9.27;;;8.38;;
37657;SDS011;23500;53.268;8.308;2023-06-22T12:47:05;8.77;;;7.80;;
37657;SDS011;23500;53.268;8.308;2023-06-22T12:49:31;8.30;;;7.50;;
37657;SDS011;23500;53.268;8.308;2023-06-22T12:51:56;8.48;;;7.68;;
37657;SDS011;23500;53.268;8.308;2023-06-22T12:54:22;8.15;;;7.40;;
37657;SDS011;23500;53.268;8.308;2023-06-22T12:56:49;8.70;;;7.90;;
37657;SDS011;23500;53.268;8.308;2023-06-22T12:59:15;7.93;;;7.13;;
37657;SDS011;23500;53.268;8.308;2023-06-22T13:01:42;8.20;;;7.40;;
37657;SDS011;23500;53.268;8.308;2023-06-22T13:04:09;8.07;;;7.28;;
37657;SDS011;23500;53.268;8.308;2023-06-22T13:06:38;8.15;;;7.35;;
37657;SDS011;23500;53.268;8.308;2023-06-22T13:09:03;8.05;;;7.25;;
37657;SDS011;23500;53.268;8.308;2023-06-22T13:11:30;7.90;;;6.65;;
37657;SDS011;23500;53.268;8.308;2023-06-22T13:13:55;7.47;;;6.78;;
37657;SDS011;23500;53.268;8.308;2023-06-22T13:16:21;8.35;;;7.32;;
37657;SDS011;23500;53.268;8.308;2023-06-22T13:18:47;7.00;;;6.30;;
37657;SDS011;23500;53.268;8.308;2023-06-22T13:21:12;7.28;;;6.60;;
37657;SDS011;23500;53.268;8.308;2023-06-22T13:23:39;7.25;;;6.55;;
37657;SDS011;23500;53.268;8.308;2023-06-22T13:26:04;8.10;;;7.32;;
37657;SDS011;23500;53.268;8.308;2023-06-22T13:28:30;7.28;;;6.57;;
37657;SDS011;23500;53.268;8.308;2023-06-22T13:30:57;8.10;;;6.93;;
37657;SDS011;23500;53.268;8.308;2023-06-22T13:33:22;7.28;;;6.57;;
37657;SDS011;23500;53.268;8.308;2023-06-22T13:35:48;7.60;;;6.47;;
37657;SDS011;23500;53.268;8.308;2023-06-22T13:38:14;7.00;;;6.40;;
37657;SDS011;23500;53.268;8.308;2023-06-22T13:40:40;7.05;;;6.45;;
37657;SDS011;23500;53.268;8.308;2023-06-22T13:43:05;6.75;;;6.03;;
37657;SDS011;23500;53.268;8.308;2023-06-22T13:45:31;6.88;;;6.07;;
37657;SDS011;23500;53.268;8.308;2023-06-22T13:47:57;7.32;;;6.40;;
37657;SDS011;23500;53.268;8.308;2023-06-22T13:50:23;7.82;;;6.78;;
37657;SDS011;23500;53.268;8.308;2023-06-22T13:52:49;7.30;;;6.60;;
37657;SDS011;23500;53.268;8.308;2023-06-22T13:55:15;6.93;;;6.25;;
37657;SDS011;23500;53.268;8.308;2023-06-22T13:57:41;7.50;;;6.78;;
37657;SDS011;23500;53.268;8.308;2023-06-22T14:00:07;7.03;;;6.00;;
37657;SDS011;23500;53.268;8.308;2023-06-22T14:02:34;6.80;;;6.07;;
37657;SDS011;23500;53.268;8.308;2023-06-22T14:05:00;7.15;;;6.13;;
37657;SDS011;23500;53.268;8.308;2023-06-22T14:07:27;6.88;;;6.28;;
37657;SDS011;23500;53.268;8.308;2023-06-22T14:09:53;6.60;;;5.97;;
37657;SDS011;23500;53.268;8.308;2023-06-22T14:12:18;6.85;;;6.25;;
37657;SDS011;23500;53.268;8.308;2023-06-22T14:14:44;7.53;;;6.82;;
37657;SDS011;23500;53.268;8.308;2023-06-22T14:17:10;6.93;;;6.25;;
37657;SDS011;23500;53.268;8.308;2023-06-22T14:19:36;6.10;;;5.63;;
37657;SDS011;23500;53.268;8.308;2023-06-22T14:22:02;6.60;;;6.00;;
37657;SDS011;23500;53.268;8.308;2023-06-22T14:24:28;8.02;;;6.30;;
37657;SDS011;23500;53.268;8.308;2023-06-22T14:26:54;6.72;;;6.20;;
37657;SDS011;23500;53.268;8.308;2023-06-22T14:29:20;6.32;;;5.72;;
37657;SDS011;23500;53.268;8.308;2023-06-22T14:31:50;7.18;;;6.47;;
37657;SDS011;23500;53.268;8.308;2023-06-22T14:34:15;7.45;;;6.47;;
37657;SDS011;23500;53.268;8.308;2023-06-22T14:36:41;6.30;;;5.80;;
37657;SDS011;23500;53.268;8.308;2023-06-22T14:39:08;6.68;;;5.97;;
37657;SDS011;23500;53.268;8.308;2023-06-22T14:41:34;6.85;;;6.15;;
37657;SDS011;23500;53.268;8.308;2023-06-22T14:44:00;7.35;;;5.93;;